sensor_id;sensor_type;location;lat;lon;timestamp;temperature;humidity
4739;DHT22;2383;48.632;10.156;2022-11-20T00:00:47;12.70;98.90
4739;DHT22;2383;48.632;10.156;2022-11-20T00:04:48;12.80;98.60
4739;DHT22;2383;48.632;10.156;2022-11-20T00:08:50;12.80;98.70
4739;DHT22;2383;48.632;10.156;2022-11-20T00:12:52;12.60;99.00
4739;DHT22;2383;48.632;10.156;2022-11-20T00:16:54;12.60;99.20
4739;DHT22;2383;48.632;10.156;2022-11-20T00:21:12;12.60;99.10
4739;DHT22;2383;48.632;10.156;2022-11-20T00:25:14;12.60;99.30
4739;DHT22;2383;48.632;10.156;2022-11-20T00:29:15;12.60;99.30
4739;DHT22;2383;48.632;10.156;2022-11-20T00:33:18;12.70;99.20
4739;DHT22;2383;48.632;10.156;2022-11-20T00:37:19;12.70;99.10
4739;DHT22;2383;48.632;10.156;2022-11-20T00:41:22;13.00;99.20
4739;DHT22;2383;48.632;10.156;2022-11-20T00:45:24;12.10;99.00
4739;DHT22;2383;48.632;10.156;2022-11-20T00:49:26;10.90;99.60
4739;DHT22;2383;48.632;10.156;2022-11-20T00:53:28;11.20;99.50
4739;DHT22;2383;48.632;10.156;2022-11-20T00:57:30;11.00;99.50
4739;DHT22;2383;48.632;10.156;2022-11-20T01:01:32;11.20;99.50
4739;DHT22;2383;48.632;10.156;2022-11-20T01:05:35;11.30;99.60
4739;DHT22;2383;48.632;10.156;2022-11-20T01:09:37;11.60;99.10
4739;DHT22;2383;48.632;10.156;2022-11-20T01:13:39;11.70;98.80
4739;DHT22;2383;48.632;10.156;2022-11-20T01:17:42;11.60;99.20
4739;DHT22;2383;48.632;10.156;2022-11-20T01:21:45;11.80;99.20
4739;DHT22;2383;48.632;10.156;2022-11-20T01:25:47;11.90;99.40
4739;DHT22;2383;48.632;10.156;2022-11-20T01:29:49;11.50;99.30
4739;DHT22;2383;48.632;10.156;2022-11-20T01:33:53;11.80;99.60
4739;DHT22;2383;48.632;10.156;2022-11-20T01:37:55;11.70;99.40
4739;DHT22;2383;48.632;10.156;2022-11-20T01:41:56;11.80;99.50
4739;DHT22;2383;48.632;10.156;2022-11-20T01:46:18;11.60;99.40
4739;DHT22;2383;48.632;10.156;2022-11-20T01:50:26;11.40;99.50
4739;DHT22;2383;48.632;10.156;2022-11-20T01:54:47;11.30;99.30
4739;DHT22;2383;48.632;10.156;2022-11-20T01:58:54;11.30;99.60
4739;DHT22;2383;48.632;10.156;2022-11-20T02:03:01;11.60;99.20
4739;DHT22;2383;48.632;10.156;2022-11-20T02:07:08;12.00;99.00
4739;DHT22;2383;48.632;10.156;2022-11-20T02:11:10;12.00;98.70
4739;DHT22;2383;48.632;10.156;2022-11-20T02:15:12;12.10;98.90
4739;DHT22;2383;48.632;10.156;2022-11-20T02:19:31;11.80;98.70
4739;DHT22;2383;48.632;10.156;2022-11-20T02:23:39;11.70;98.80
4739;DHT22;2383;48.632;10.156;2022-11-20T02:27:41;11.60;98.60
4739;DHT22;2383;48.632;10.156;2022-11-20T02:31:43;11.30;98.50
4739;DHT22;2383;48.632;10.156;2022-11-20T02:35:46;11.30;98.80
4739;DHT22;2383;48.632;10.156;2022-11-20T02:39:50;11.40;99.00
4739;DHT22;2383;48.632;10.156;2022-11-20T02:43:52;11.10;99.00
4739;DHT22;2383;48.632;10.156;2022-11-20T02:47:54;11.30;98.80
4739;DHT22;2383;48.632;10.156;2022-11-20T02:51:56;11.10;98.80
4739;DHT22;2383;48.632;10.156;2022-11-20T02:55:57;11.40;98.70
4739;DHT22;2383;48.632;10.156;2022-11-20T02:59:59;11.30;98.70
4739;DHT22;2383;48.632;10.156;2022-11-20T03:04:02;11.00;98.50
4739;DHT22;2383;48.632;10.156;2022-11-20T03:08:04;11.10;98.60
4739;DHT22;2383;48.632;10.156;2022-11-20T03:12:06;11.40;98.80
4739;DHT22;2383;48.632;10.156;2022-11-20T03:16:13;11.10;98.60
4739;DHT22;2383;48.632;10.156;2022-11-20T03:20:15;10.90;98.70
4739;DHT22;2383;48.632;10.156;2022-11-20T03:24:17;11.00;98.60
4739;DHT22;2383;48.632;10.156;2022-11-20T03:28:19;11.00;98.40
4739;DHT22;2383;48.632;10.156;2022-11-20T03:32:20;10.80;98.50
4739;DHT22;2383;48.632;10.156;2022-11-20T03:36:23;10.90;98.50
4739;DHT22;2383;48.632;10.156;2022-11-20T03:40:24;10.80;98.40
4739;DHT22;2383;48.632;10.156;2022-11-20T03:44:26;10.70;98.70
4739;DHT22;2383;48.632;10.156;2022-11-20T03:48:28;10.40;98.50
4739;DHT22;2383;48.632;10.156;2022-11-20T03:52:30;10.60;98.40
4739;DHT22;2383;48.632;10.156;2022-11-20T03:56:34;10.30;98.40
4739;DHT22;2383;48.632;10.156;2022-11-20T04:00:36;10.80;98.50
4739;DHT22;2383;48.632;10.156;2022-11-20T04:04:38;10.40;97.90
4739;DHT22;2383;48.632;10.156;2022-11-20T04:08:40;10.70;98.10
4739;DHT22;2383;48.632;10.156;2022-11-20T04:12:42;10.40;98.00
4739;DHT22;2383;48.632;10.156;2022-11-20T04:16:48;10.70;97.60
4739;DHT22;2383;48.632;10.156;2022-11-20T04:20:50;11.00;97.50
4739;DHT22;2383;48.632;10.156;2022-11-20T04:24:52;11.00;97.30
4739;DHT22;2383;48.632;10.156;2022-11-20T04:28:57;11.00;97.00
4739;DHT22;2383;48.632;10.156;2022-11-20T04:32:59;11.10;97.40
4739;DHT22;2383;48.632;10.156;2022-11-20T04:37:00;10.90;97.60
4739;DHT22;2383;48.632;10.156;2022-11-20T04:41:05;10.90;97.50
4739;DHT22;2383;48.632;10.156;2022-11-20T04:45:08;11.30;97.30
4739;DHT22;2383;48.632;10.156;2022-11-20T04:49:11;10.70;97.30
4739;DHT22;2383;48.632;10.156;2022-11-20T04:53:13;10.80;97.80
4739;DHT22;2383;48.632;10.156;2022-11-20T04:57:15;10.90;97.40
4739;DHT22;2383;48.632;10.156;2022-11-20T05:01:19;10.90;97.10
4739;DHT22;2383;48.632;10.156;2022-11-20T05:05:21;11.00;97.30
4739;DHT22;2383;48.632;10.156;2022-11-20T05:09:23;11.00;97.00
4739;DHT22;2383;48.632;10.156;2022-11-20T05:13:26;11.00;97.40
4739;DHT22;2383;48.632;10.156;2022-11-20T05:17:28;10.80;97.20
4739;DHT22;2383;48.632;10.156;2022-11-20T05:21:32;10.70;97.30
4739;DHT22;2383;48.632;10.156;2022-11-20T05:25:34;10.50;97.30
4739;DHT22;2383;48.632;10.156;2022-11-20T05:29:36;10.40;97.30
4739;DHT22;2383;48.632;10.156;2022-11-20T05:33:40;10.90;97.10
4739;DHT22;2383;48.632;10.156;2022-11-20T05:37:42;10.60;97.30
4739;DHT22;2383;48.632;10.156;2022-11-20T05:41:44;10.80;97.60
4739;DHT22;2383;48.632;10.156;2022-11-20T05:45:53;10.50;97.50
4739;DHT22;2383;48.632;10.156;2022-11-20T05:49:55;10.10;97.60
4739;DHT22;2383;48.632;10.156;2022-11-20T05:53:57;10.30;97.60
4739;DHT22;2383;48.632;10.156;2022-11-20T05:57:59;10.40;97.50
4739;DHT22;2383;48.632;10.156;2022-11-20T06:02:01;10.30;97.70
4739;DHT22;2383;48.632;10.156;2022-11-20T06:06:04;10.50;97.60
4739;DHT22;2383;48.632;10.156;2022-11-20T06:10:06;10.20;97.80
4739;DHT22;2383;48.632;10.156;2022-11-20T06:14:08;9.80;98.30
4739;DHT22;2383;48.632;10.156;2022-11-20T06:18:10;10.10;97.90
4739;DHT22;2383;48.632;10.156;2022-11-20T06:22:12;10.20;97.80
4739;DHT22;2383;48.632;10.156;2022-11-20T06:26:19;10.10;97.70
4739;DHT22;2383;48.632;10.156;2022-11-20T06:30:21;10.40;97.60
4739;DHT22;2383;48.632;10.156;2022-11-20T06:34:23;10.30;97.50
4739;DHT22;2383;48.632;10.156;2022-11-20T06:38:26;10.40;97.80
4739;DHT22;2383;48.632;10.156;2022-11-20T06:42:28;10.00;98.10
4739;DHT22;2383;48.632;10.156;2022-11-20T06:46:30;10.10;98.00
4739;DHT22;2383;48.632;10.156;2022-11-20T06:50:31;10.60;97.60
4739;DHT22;2383;48.632;10.156;2022-11-20T06:54:33;10.40;97.60
4739;DHT22;2383;48.632;10.156;2022-11-20T06:58:35;10.30;97.40
4739;DHT22;2383;48.632;10.156;2022-11-20T07:02:37;10.20;97.70
4739;DHT22;2383;48.632;10.156;2022-11-20T07:06:39;10.30;97.90
4739;DHT22;2383;48.632;10.156;2022-11-20T07:10:40;10.30;97.70
4739;DHT22;2383;48.632;10.156;2022-11-20T07:14:42;10.10;97.90
4739;DHT22;2383;48.632;10.156;2022-11-20T07:18:44;10.20;97.70
4739;DHT22;2383;48.632;10.156;2022-11-20T07:22:55;9.90;98.40
4739;DHT22;2383;48.632;10.156;2022-11-20T07:26:57;9.60;98.80
4739;DHT22;2383;48.632;10.156;2022-11-20T07:30:59;9.50;98.50
4739;DHT22;2383;48.632;10.156;2022-11-20T07:35:06;10.40;98.30
4739;DHT22;2383;48.632;10.156;2022-11-20T07:39:08;10.00;98.10
4739;DHT22;2383;48.632;10.156;2022-11-20T07:43:10;10.20;97.90
4739;DHT22;2383;48.632;10.156;2022-11-20T07:47:11;9.70;98.60
4739;DHT22;2383;48.632;10.156;2022-11-20T07:51:13;9.50;98.80
4739;DHT22;2383;48.632;10.156;2022-11-20T07:55:15;9.60;98.70
4739;DHT22;2383;48.632;10.156;2022-11-20T07:59:17;9.80;98.70
4739;DHT22;2383;48.632;10.156;2022-11-20T08:03:19;10.10;98.30
4739;DHT22;2383;48.632;10.156;2022-11-20T08:07:26;10.00;97.60
4739;DHT22;2383;48.632;10.156;2022-11-20T08:11:28;9.90;98.40
4739;DHT22;2383;48.632;10.156;2022-11-20T08:15:50;9.30;99.20
4739;DHT22;2383;48.632;10.156;2022-11-20T08:19:55;10.00;98.50
4739;DHT22;2383;48.632;10.156;2022-11-20T08:23:57;9.70;98.90
4739;DHT22;2383;48.632;10.156;2022-11-20T08:28:00;10.00;98.20
4739;DHT22;2383;48.632;10.156;2022-11-20T08:32:16;9.90;98.50
4739;DHT22;2383;48.632;10.156;2022-11-20T08:36:18;10.30;98.10
4739;DHT22;2383;48.632;10.156;2022-11-20T08:40:20;9.80;98.90
4739;DHT22;2383;48.632;10.156;2022-11-20T08:44:22;10.10;98.20
4739;DHT22;2383;48.632;10.156;2022-11-20T08:48:24;10.10;98.20
4739;DHT22;2383;48.632;10.156;2022-11-20T08:52:25;10.10;98.30
4739;DHT22;2383;48.632;10.156;2022-11-20T08:56:27;9.80;98.90
4739;DHT22;2383;48.632;10.156;2022-11-20T09:00:29;9.80;99.10
4739;DHT22;2383;48.632;10.156;2022-11-20T09:04:31;9.50;99.40
4739;DHT22;2383;48.632;10.156;2022-11-20T09:08:33;10.40;98.50
4739;DHT22;2383;48.632;10.156;2022-11-20T09:12:36;10.60;98.10
4739;DHT22;2383;48.632;10.156;2022-11-20T09:16:38;10.60;98.50
4739;DHT22;2383;48.632;10.156;2022-11-20T09:20:40;10.70;98.10
4739;DHT22;2383;48.632;10.156;2022-11-20T09:24:42;10.50;97.80
4739;DHT22;2383;48.632;10.156;2022-11-20T09:28:44;10.50;98.30
4739;DHT22;2383;48.632;10.156;2022-11-20T09:32:46;11.00;98.20
4739;DHT22;2383;48.632;10.156;2022-11-20T09:36:47;11.30;98.00
4739;DHT22;2383;48.632;10.156;2022-11-20T09:40:57;11.30;97.90
4739;DHT22;2383;48.632;10.156;2022-11-20T09:49:17;10.30;98.40
4739;DHT22;2383;48.632;10.156;2022-11-20T09:57:42;10.10;99.10
4739;DHT22;2383;48.632;10.156;2022-11-20T10:01:45;10.70;98.70
4739;DHT22;2383;48.632;10.156;2022-11-20T10:05:51;10.90;97.90
4739;DHT22;2383;48.632;10.156;2022-11-20T10:09:55;11.00;98.70
4739;DHT22;2383;48.632;10.156;2022-11-20T10:31:34;11.10;98.10
4739;DHT22;2383;48.632;10.156;2022-11-20T10:39:53;11.10;98.10
4739;DHT22;2383;48.632;10.156;2022-11-20T10:44:17;11.20;98.00
4739;DHT22;2383;48.632;10.156;2022-11-20T10:48:43;11.30;98.70
4739;DHT22;2383;48.632;10.156;2022-11-20T10:53:07;12.00;98.30
4739;DHT22;2383;48.632;10.156;2022-11-20T11:13:04;11.70;98.50
4739;DHT22;2383;48.632;10.156;2022-11-20T11:23:36;12.10;98.60
4739;DHT22;2383;48.632;10.156;2022-11-20T11:27:49;12.30;99.00
4739;DHT22;2383;48.632;10.156;2022-11-20T11:31:51;12.10;98.60
4739;DHT22;2383;48.632;10.156;2022-11-20T11:36:15;12.30;98.70
4739;DHT22;2383;48.632;10.156;2022-11-20T11:40:18;11.80;99.20
4739;DHT22;2383;48.632;10.156;2022-11-20T11:44:31;11.60;99.40
4739;DHT22;2383;48.632;10.156;2022-11-20T11:53:18;12.00;99.50
4739;DHT22;2383;48.632;10.156;2022-11-20T11:57:47;12.20;99.50
4739;DHT22;2383;48.632;10.156;2022-11-20T12:02:02;12.20;99.50
4739;DHT22;2383;48.632;10.156;2022-11-20T12:06:16;12.40;99.10
4739;DHT22;2383;48.632;10.156;2022-11-20T12:15:15;12.30;99.40
4739;DHT22;2383;48.632;10.156;2022-11-20T12:19:20;12.40;99.60
4739;DHT22;2383;48.632;10.156;2022-11-20T12:23:33;12.30;98.80
4739;DHT22;2383;48.632;10.156;2022-11-20T13:06:45;12.00;98.40
4739;DHT22;2383;48.632;10.156;2022-11-20T13:15:27;12.10;99.10
4739;DHT22;2383;48.632;10.156;2022-11-20T13:19:36;11.80;99.70
4739;DHT22;2383;48.632;10.156;2022-11-20T13:23:39;11.20;99.00
4739;DHT22;2383;48.632;10.156;2022-11-20T13:27:48;11.30;99.40
4739;DHT22;2383;48.632;10.156;2022-11-20T13:31:50;11.80;99.70
4739;DHT22;2383;48.632;10.156;2022-11-20T13:36:22;11.90;98.90
4739;DHT22;2383;48.632;10.156;2022-11-20T13:40:22;12.40;98.30
4739;DHT22;2383;48.632;10.156;2022-11-20T13:44:44;12.60;97.90
4739;DHT22;2383;48.632;10.156;2022-11-20T13:48:48;12.70;98.20
4739;DHT22;2383;48.632;10.156;2022-11-20T14:02:16;12.50;97.70
4739;DHT22;2383;48.632;10.156;2022-11-20T14:06:29;12.80;97.30
4739;DHT22;2383;48.632;10.156;2022-11-20T14:10:33;12.70;97.20
4739;DHT22;2383;48.632;10.156;2022-11-20T14:14:34;12.70;97.30
4739;DHT22;2383;48.632;10.156;2022-11-20T14:18:38;12.40;97.50
4739;DHT22;2383;48.632;10.156;2022-11-20T14:22:49;12.40;97.10
4739;DHT22;2383;48.632;10.156;2022-11-20T14:26:54;12.20;98.00
4739;DHT22;2383;48.632;10.156;2022-11-20T14:31:00;12.20;96.90
4739;DHT22;2383;48.632;10.156;2022-11-20T14:35:08;11.30;96.30
4739;DHT22;2383;48.632;10.156;2022-11-20T14:39:20;11.00;97.40
4739;DHT22;2383;48.632;10.156;2022-11-20T14:43:25;11.50;97.10
4739;DHT22;2383;48.632;10.156;2022-11-20T14:47:30;11.80;96.60
4739;DHT22;2383;48.632;10.156;2022-11-20T14:51:34;11.90;96.60
4739;DHT22;2383;48.632;10.156;2022-11-20T14:55:38;12.10;95.80
4739;DHT22;2383;48.632;10.156;2022-11-20T15:04:11;12.50;95.50
4739;DHT22;2383;48.632;10.156;2022-11-20T15:08:24;11.90;95.20
4739;DHT22;2383;48.632;10.156;2022-11-20T15:12:26;12.30;95.80
4739;DHT22;2383;48.632;10.156;2022-11-20T15:16:34;11.80;95.90
4739;DHT22;2383;48.632;10.156;2022-11-20T15:20:36;11.50;96.20
4739;DHT22;2383;48.632;10.156;2022-11-20T15:24:38;12.00;96.30
4739;DHT22;2383;48.632;10.156;2022-11-20T15:28:48;12.20;96.40
4739;DHT22;2383;48.632;10.156;2022-11-20T15:32:54;12.20;96.60
4739;DHT22;2383;48.632;10.156;2022-11-20T15:36:56;12.20;96.40
4739;DHT22;2383;48.632;10.156;2022-11-20T15:52:11;12.10;96.30
4739;DHT22;2383;48.632;10.156;2022-11-20T15:56:43;12.00;96.40
4739;DHT22;2383;48.632;10.156;2022-11-20T16:00:57;12.10;96.60
4739;DHT22;2383;48.632;10.156;2022-11-20T16:05:11;12.10;96.00
4739;DHT22;2383;48.632;10.156;2022-11-20T16:09:16;12.00;96.40
4739;DHT22;2383;48.632;10.156;2022-11-20T16:13:18;11.90;96.40
4739;DHT22;2383;48.632;10.156;2022-11-20T16:17:38;11.80;96.70
4739;DHT22;2383;48.632;10.156;2022-11-20T16:21:46;12.10;96.90
4739;DHT22;2383;48.632;10.156;2022-11-20T16:25:49;11.70;97.10
4739;DHT22;2383;48.632;10.156;2022-11-20T16:29:51;11.70;97.20
4739;DHT22;2383;48.632;10.156;2022-11-20T16:34:07;11.50;96.80
4739;DHT22;2383;48.632;10.156;2022-11-20T16:38:13;11.60;97.10
4739;DHT22;2383;48.632;10.156;2022-11-20T16:42:15;11.60;96.90
4739;DHT22;2383;48.632;10.156;2022-11-20T16:46:18;11.80;97.10
4739;DHT22;2383;48.632;10.156;2022-11-20T16:50:27;11.50;97.30
4739;DHT22;2383;48.632;10.156;2022-11-20T16:54:29;11.50;97.20
4739;DHT22;2383;48.632;10.156;2022-11-20T16:58:31;11.40;97.40
4739;DHT22;2383;48.632;10.156;2022-11-20T17:02:42;11.30;97.00
4739;DHT22;2383;48.632;10.156;2022-11-20T17:06:44;11.10;97.20
4739;DHT22;2383;48.632;10.156;2022-11-20T17:10:46;11.40;97.40
4739;DHT22;2383;48.632;10.156;2022-11-20T17:14:54;11.20;96.90
4739;DHT22;2383;48.632;10.156;2022-11-20T17:18:57;11.40;97.10
4739;DHT22;2383;48.632;10.156;2022-11-20T17:23:04;11.10;97.20
4739;DHT22;2383;48.632;10.156;2022-11-20T17:27:05;11.30;97.00
4739;DHT22;2383;48.632;10.156;2022-11-20T17:31:10;11.20;97.30
4739;DHT22;2383;48.632;10.156;2022-11-20T17:35:14;11.00;97.10
4739;DHT22;2383;48.632;10.156;2022-11-20T17:39:16;10.70;97.10
4739;DHT22;2383;48.632;10.156;2022-11-20T17:43:18;10.80;97.30
4739;DHT22;2383;48.632;10.156;2022-11-20T17:47:21;10.90;97.30
4739;DHT22;2383;48.632;10.156;2022-11-20T17:51:25;11.40;96.90
4739;DHT22;2383;48.632;10.156;2022-11-20T17:55:28;11.10;97.10
4739;DHT22;2383;48.632;10.156;2022-11-20T17:59:56;11.00;97.00
4739;DHT22;2383;48.632;10.156;2022-11-20T18:03:58;11.40;97.10
4739;DHT22;2383;48.632;10.156;2022-11-20T18:08:05;11.30;96.90
4739;DHT22;2383;48.632;10.156;2022-11-20T18:12:07;11.20;96.70
4739;DHT22;2383;48.632;10.156;2022-11-20T18:16:09;11.10;96.80
4739;DHT22;2383;48.632;10.156;2022-11-20T18:20:12;11.30;97.00
4739;DHT22;2383;48.632;10.156;2022-11-20T18:24:38;11.20;97.20
4739;DHT22;2383;48.632;10.156;2022-11-20T18:28:40;10.80;97.20
4739;DHT22;2383;48.632;10.156;2022-11-20T18:32:42;11.10;97.00
4739;DHT22;2383;48.632;10.156;2022-11-20T18:36:44;11.40;97.20
4739;DHT22;2383;48.632;10.156;2022-11-20T18:40:46;11.10;97.50
4739;DHT22;2383;48.632;10.156;2022-11-20T18:44:48;11.20;97.10
4739;DHT22;2383;48.632;10.156;2022-11-20T18:48:56;11.20;97.30
4739;DHT22;2383;48.632;10.156;2022-11-20T18:52:58;11.10;97.30
4739;DHT22;2383;48.632;10.156;2022-11-20T18:57:00;11.00;97.40
4739;DHT22;2383;48.632;10.156;2022-11-20T19:01:06;11.30;97.50
4739;DHT22;2383;48.632;10.156;2022-11-20T19:05:10;11.30;97.50
4739;DHT22;2383;48.632;10.156;2022-11-20T19:09:21;11.00;97.40
4739;DHT22;2383;48.632;10.156;2022-11-20T19:13:24;11.30;97.60
4739;DHT22;2383;48.632;10.156;2022-11-20T19:17:26;10.90;97.30
4739;DHT22;2383;48.632;10.156;2022-11-20T19:21:28;11.30;97.50
4739;DHT22;2383;48.632;10.156;2022-11-20T19:25:33;11.00;97.60
4739;DHT22;2383;48.632;10.156;2022-11-20T19:29:41;11.20;97.60
4739;DHT22;2383;48.632;10.156;2022-11-20T19:33:55;10.90;97.10
4739;DHT22;2383;48.632;10.156;2022-11-20T19:38:01;11.00;97.70
4739;DHT22;2383;48.632;10.156;2022-11-20T19:42:06;10.90;97.30
4739;DHT22;2383;48.632;10.156;2022-11-20T19:46:10;10.90;97.70
4739;DHT22;2383;48.632;10.156;2022-11-20T19:50:12;10.90;97.70
4739;DHT22;2383;48.632;10.156;2022-11-20T19:54:18;11.10;97.50
4739;DHT22;2383;48.632;10.156;2022-11-20T19:58:20;11.20;96.90
4739;DHT22;2383;48.632;10.156;2022-11-20T20:02:22;10.50;96.90
4739;DHT22;2383;48.632;10.156;2022-11-20T20:06:24;10.10;97.20
4739;DHT22;2383;48.632;10.156;2022-11-20T20:10:26;9.70;98.70
4739;DHT22;2383;48.632;10.156;2022-11-20T20:14:28;9.30;99.10
4739;DHT22;2383;48.632;10.156;2022-11-20T20:18:32;9.70;99.90
4739;DHT22;2383;48.632;10.156;2022-11-20T20:22:33;10.20;98.40
4739;DHT22;2383;48.632;10.156;2022-11-20T20:26:35;10.30;98.40
4739;DHT22;2383;48.632;10.156;2022-11-20T20:30:37;10.60;98.20
4739;DHT22;2383;48.632;10.156;2022-11-20T20:34:39;11.00;98.00
4739;DHT22;2383;48.632;10.156;2022-11-20T20:38:41;10.80;98.60
4739;DHT22;2383;48.632;10.156;2022-11-20T20:42:43;11.10;98.30
4739;DHT22;2383;48.632;10.156;2022-11-20T20:46:50;11.40;97.50
4739;DHT22;2383;48.632;10.156;2022-11-20T20:51:11;11.10;98.20
4739;DHT22;2383;48.632;10.156;2022-11-20T20:55:19;11.00;98.10
4739;DHT22;2383;48.632;10.156;2022-11-20T20:59:54;10.90;98.80
4739;DHT22;2383;48.632;10.156;2022-11-20T21:04:02;10.90;98.70
4739;DHT22;2383;48.632;10.156;2022-11-20T21:08:04;10.90;98.80
4739;DHT22;2383;48.632;10.156;2022-11-20T21:12:25;10.80;98.90
4739;DHT22;2383;48.632;10.156;2022-11-20T21:16:27;11.10;99.50
4739;DHT22;2383;48.632;10.156;2022-11-20T21:20:42;11.10;99.40
4739;DHT22;2383;48.632;10.156;2022-11-20T21:25:03;10.40;99.80
4739;DHT22;2383;48.632;10.156;2022-11-20T21:29:06;10.40;99.30
4739;DHT22;2383;48.632;10.156;2022-11-20T21:33:16;10.80;99.20
4739;DHT22;2383;48.632;10.156;2022-11-20T21:37:18;10.70;99.30
4739;DHT22;2383;48.632;10.156;2022-11-20T21:41:20;10.80;99.10
4739;DHT22;2383;48.632;10.156;2022-11-20T21:45:21;10.30;99.40
4739;DHT22;2383;48.632;10.156;2022-11-20T21:49:24;10.30;98.90
4739;DHT22;2383;48.632;10.156;2022-11-20T21:53:26;10.40;99.10
4739;DHT22;2383;48.632;10.156;2022-11-20T21:57:28;10.10;99.60
4739;DHT22;2383;48.632;10.156;2022-11-20T22:01:30;10.70;99.60
4739;DHT22;2383;48.632;10.156;2022-11-20T22:05:32;10.10;99.70
4739;DHT22;2383;48.632;10.156;2022-11-20T22:09:33;10.20;99.90
4739;DHT22;2383;48.632;10.156;2022-11-20T22:13:35;10.70;99.50
4739;DHT22;2383;48.632;10.156;2022-11-20T22:17:57;10.90;99.80
4739;DHT22;2383;48.632;10.156;2022-11-20T22:22:21;11.10;99.70
4739;DHT22;2383;48.632;10.156;2022-11-20T22:26:28;10.90;99.00
4739;DHT22;2383;48.632;10.156;2022-11-20T22:30:31;11.20;99.20
4739;DHT22;2383;48.632;10.156;2022-11-20T22:34:32;10.90;98.80
4739;DHT22;2383;48.632;10.156;2022-11-20T22:38:35;10.70;99.10
4739;DHT22;2383;48.632;10.156;2022-11-20T22:42:43;11.10;99.40
4739;DHT22;2383;48.632;10.156;2022-11-20T22:46:52;11.00;98.90
4739;DHT22;2383;48.632;10.156;2022-11-20T22:51:03;11.10;98.60
4739;DHT22;2383;48.632;10.156;2022-11-20T22:55:05;11.30;98.60
4739;DHT22;2383;48.632;10.156;2022-11-20T22:59:09;11.40;98.70
4739;DHT22;2383;48.632;10.156;2022-11-20T23:03:14;11.30;99.20
4739;DHT22;2383;48.632;10.156;2022-11-20T23:07:20;11.20;99.00
4739;DHT22;2383;48.632;10.156;2022-11-20T23:11:25;11.20;98.90
4739;DHT22;2383;48.632;10.156;2022-11-20T23:15:34;11.40;99.10
4739;DHT22;2383;48.632;10.156;2022-11-20T23:20:02;11.30;98.50
4739;DHT22;2383;48.632;10.156;2022-11-20T23:24:06;11.10;98.80
4739;DHT22;2383;48.632;10.156;2022-11-20T23:28:09;11.20;98.70
4739;DHT22;2383;48.632;10.156;2022-11-20T23:32:14;11.00;99.10
4739;DHT22;2383;48.632;10.156;2022-11-20T23:36:28;10.90;98.50
4739;DHT22;2383;48.632;10.156;2022-11-20T23:40:33;11.00;98.60
4739;DHT22;2383;48.632;10.156;2022-11-20T23:44:42;10.60;98.50
4739;DHT22;2383;48.632;10.156;2022-11-20T23:48:45;10.90;97.80
4739;DHT22;2383;48.632;10.156;2022-11-20T23:52:47;10.90;98.50
4739;DHT22;2383;48.632;10.156;2022-11-20T23:56:59;11.20;98.10
